sensor_id;sensor_type;location;lat;lon;timestamp;P1;durP1;ratioP1;P2;durP2;ratioP2
15402;SDS011;7799;53.478;10.170;2023-04-08T00:00:26;3.90;;;3.50;;
15402;SDS011;7799;53.478;10.170;2023-04-08T00:02:52;5.57;;;4.03;;
15402;SDS011;7799;53.478;10.170;2023-04-08T00:05:19;4.40;;;3.50;;
15402;SDS011;7799;53.478;10.170;2023-04-08T00:07:46;5.07;;;4.50;;
15402;SDS011;7799;53.478;10.170;2023-04-08T00:10:14;5.77;;;4.30;;
15402;SDS011;7799;53.478;10.170;2023-04-08T00:12:41;6.40;;;4.17;;
15402;SDS011;7799;53.478;10.170;2023-04-08T00:15:08;4.33;;;3.47;;
15402;SDS011;7799;53.478;10.170;2023-04-08T00:17:35;4.23;;;3.83;;
15402;SDS011;7799;53.478;10.170;2023-04-08T00:20:01;4.50;;;3.43;;
15402;SDS011;7799;53.478;10.170;2023-04-08T00:22:29;5.10;;;3.93;;
15402;SDS011;7799;53.478;10.170;2023-04-08T00:24:56;4.57;;;3.20;;
15402;SDS011;7799;53.478;10.170;2023-04-08T00:27:24;5.10;;;4.03;;
15402;SDS011;7799;53.478;10.170;2023-04-08T00:29:50;4.80;;;4.00;;
15402;SDS011;7799;53.478;10.170;2023-04-08T00:32:17;4.70;;;3.33;;
15402;SDS011;7799;53.478;10.170;2023-04-08T00:34:44;5.47;;;3.70;;
15402;SDS011;7799;53.478;10.170;2023-04-08T00:37:10;5.53;;;3.90;;
15402;SDS011;7799;53.478;10.170;2023-04-08T00:39:37;4.83;;;3.70;;
15402;SDS011;7799;53.478;10.170;2023-04-08T00:42:04;6.07;;;4.37;;
15402;SDS011;7799;53.478;10.170;2023-04-08T00:44:32;4.77;;;3.87;;
15402;SDS011;7799;53.478;10.170;2023-04-08T00:46:58;6.27;;;4.53;;
15402;SDS011;7799;53.478;10.170;2023-04-08T00:49:25;5.57;;;3.90;;
15402;SDS011;7799;53.478;10.170;2023-04-08T00:51:52;5.33;;;3.97;;
15402;SDS011;7799;53.478;10.170;2023-04-08T00:54:19;4.47;;;3.73;;
15402;SDS011;7799;53.478;10.170;2023-04-08T00:56:45;4.57;;;3.73;;
15402;SDS011;7799;53.478;10.170;2023-04-08T00:59:12;3.83;;;3.30;;
15402;SDS011;7799;53.478;10.170;2023-04-08T01:01:42;5.53;;;3.43;;
15402;SDS011;7799;53.478;10.170;2023-04-08T01:04:12;5.50;;;3.50;;
15402;SDS011;7799;53.478;10.170;2023-04-08T01:06:46;5.03;;;3.50;;
15402;SDS011;7799;53.478;10.170;2023-04-08T01:09:15;2.87;;;2.43;;
15402;SDS011;7799;53.478;10.170;2023-04-08T01:11:45;3.40;;;2.87;;
15402;SDS011;7799;53.478;10.170;2023-04-08T01:14:14;4.40;;;2.47;;
15402;SDS011;7799;53.478;10.170;2023-04-08T01:16:44;3.63;;;2.93;;
15402;SDS011;7799;53.478;10.170;2023-04-08T01:19:21;3.53;;;2.57;;
15402;SDS011;7799;53.478;10.170;2023-04-08T01:21:54;3.00;;;2.47;;
15402;SDS011;7799;53.478;10.170;2023-04-08T01:24:28;3.63;;;2.80;;
15402;SDS011;7799;53.478;10.170;2023-04-08T01:26:58;4.47;;;3.20;;
15402;SDS011;7799;53.478;10.170;2023-04-08T01:29:25;2.90;;;2.20;;
15402;SDS011;7799;53.478;10.170;2023-04-08T01:31:53;4.07;;;2.90;;
15402;SDS011;7799;53.478;10.170;2023-04-08T01:34:20;3.23;;;2.60;;
15402;SDS011;7799;53.478;10.170;2023-04-08T01:36:48;4.33;;;2.90;;
15402;SDS011;7799;53.478;10.170;2023-04-08T01:39:15;3.20;;;2.87;;
15402;SDS011;7799;53.478;10.170;2023-04-08T01:41:45;3.67;;;2.87;;
15402;SDS011;7799;53.478;10.170;2023-04-08T01:44:13;2.53;;;2.17;;
15402;SDS011;7799;53.478;10.170;2023-04-08T01:46:40;2.53;;;2.30;;
15402;SDS011;7799;53.478;10.170;2023-04-08T01:49:07;2.90;;;2.40;;
15402;SDS011;7799;53.478;10.170;2023-04-08T01:51:35;2.47;;;2.07;;
15402;SDS011;7799;53.478;10.170;2023-04-08T01:54:03;2.67;;;2.10;;
15402;SDS011;7799;53.478;10.170;2023-04-08T01:56:31;2.33;;;2.10;;
15402;SDS011;7799;53.478;10.170;2023-04-08T01:59:02;2.67;;;2.20;;
15402;SDS011;7799;53.478;10.170;2023-04-08T02:01:34;3.00;;;2.60;;
15402;SDS011;7799;53.478;10.170;2023-04-08T02:04:01;3.20;;;2.73;;
15402;SDS011;7799;53.478;10.170;2023-04-08T02:06:29;2.80;;;2.20;;
15402;SDS011;7799;53.478;10.170;2023-04-08T02:08:57;2.80;;;2.50;;
15402;SDS011;7799;53.478;10.170;2023-04-08T02:11:24;3.27;;;2.53;;
15402;SDS011;7799;53.478;10.170;2023-04-08T02:13:52;2.80;;;2.20;;
15402;SDS011;7799;53.478;10.170;2023-04-08T02:16:21;2.83;;;2.00;;
15402;SDS011;7799;53.478;10.170;2023-04-08T02:18:52;2.77;;;2.40;;
15402;SDS011;7799;53.478;10.170;2023-04-08T02:21:21;2.67;;;2.27;;
15402;SDS011;7799;53.478;10.170;2023-04-08T02:23:52;2.73;;;2.30;;
15402;SDS011;7799;53.478;10.170;2023-04-08T02:26:20;2.77;;;2.37;;
15402;SDS011;7799;53.478;10.170;2023-04-08T02:28:47;2.37;;;2.17;;
15402;SDS011;7799;53.478;10.170;2023-04-08T02:31:15;4.17;;;3.00;;
15402;SDS011;7799;53.478;10.170;2023-04-08T02:33:43;4.13;;;3.20;;
15402;SDS011;7799;53.478;10.170;2023-04-08T02:36:12;4.60;;;3.53;;
15402;SDS011;7799;53.478;10.170;2023-04-08T02:38:39;4.20;;;3.10;;
15402;SDS011;7799;53.478;10.170;2023-04-08T02:41:07;3.70;;;2.53;;
15402;SDS011;7799;53.478;10.170;2023-04-08T02:43:33;3.40;;;3.10;;
15402;SDS011;7799;53.478;10.170;2023-04-08T02:46:04;3.40;;;2.73;;
15402;SDS011;7799;53.478;10.170;2023-04-08T02:48:31;4.67;;;3.23;;
15402;SDS011;7799;53.478;10.170;2023-04-08T02:50:58;3.93;;;3.60;;
15402;SDS011;7799;53.478;10.170;2023-04-08T02:53:26;4.63;;;3.80;;
15402;SDS011;7799;53.478;10.170;2023-04-08T02:55:53;3.10;;;2.80;;
15402;SDS011;7799;53.478;10.170;2023-04-08T02:58:19;3.77;;;2.73;;
15402;SDS011;7799;53.478;10.170;2023-04-08T03:00:46;3.67;;;3.17;;
15402;SDS011;7799;53.478;10.170;2023-04-08T03:03:13;4.43;;;3.53;;
15402;SDS011;7799;53.478;10.170;2023-04-08T03:05:39;4.03;;;3.47;;
15402;SDS011;7799;53.478;10.170;2023-04-08T03:08:06;3.77;;;3.37;;
15402;SDS011;7799;53.478;10.170;2023-04-08T03:10:34;3.83;;;3.13;;
15402;SDS011;7799;53.478;10.170;2023-04-08T03:13:02;4.53;;;3.40;;
15402;SDS011;7799;53.478;10.170;2023-04-08T03:15:29;4.17;;;3.03;;
15402;SDS011;7799;53.478;10.170;2023-04-08T03:17:55;3.83;;;3.00;;
15402;SDS011;7799;53.478;10.170;2023-04-08T03:20:22;4.90;;;3.70;;
15402;SDS011;7799;53.478;10.170;2023-04-08T03:22:49;4.07;;;3.67;;
15402;SDS011;7799;53.478;10.170;2023-04-08T03:25:15;3.67;;;3.00;;
15402;SDS011;7799;53.478;10.170;2023-04-08T03:27:44;3.57;;;3.20;;
15402;SDS011;7799;53.478;10.170;2023-04-08T03:30:10;3.27;;;2.83;;
15402;SDS011;7799;53.478;10.170;2023-04-08T03:32:37;4.80;;;3.63;;
15402;SDS011;7799;53.478;10.170;2023-04-08T03:35:04;5.77;;;4.60;;
15402;SDS011;7799;53.478;10.170;2023-04-08T03:37:31;4.77;;;4.00;;
15402;SDS011;7799;53.478;10.170;2023-04-08T03:39:58;6.13;;;4.80;;
15402;SDS011;7799;53.478;10.170;2023-04-08T03:42:25;5.80;;;5.00;;
15402;SDS011;7799;53.478;10.170;2023-04-08T03:44:53;6.73;;;4.60;;
15402;SDS011;7799;53.478;10.170;2023-04-08T03:47:20;6.00;;;4.47;;
15402;SDS011;7799;53.478;10.170;2023-04-08T03:49:47;5.93;;;4.77;;
15402;SDS011;7799;53.478;10.170;2023-04-08T03:52:13;6.37;;;4.97;;
15402;SDS011;7799;53.478;10.170;2023-04-08T03:54:40;5.37;;;4.27;;
15402;SDS011;7799;53.478;10.170;2023-04-08T03:57:07;4.60;;;3.40;;
15402;SDS011;7799;53.478;10.170;2023-04-08T03:59:33;3.63;;;2.90;;
15402;SDS011;7799;53.478;10.170;2023-04-08T04:02:02;3.83;;;3.00;;
15402;SDS011;7799;53.478;10.170;2023-04-08T04:04:28;4.13;;;3.40;;
15402;SDS011;7799;53.478;10.170;2023-04-08T04:06:55;5.60;;;4.87;;
15402;SDS011;7799;53.478;10.170;2023-04-08T04:09:22;5.97;;;4.93;;
15402;SDS011;7799;53.478;10.170;2023-04-08T04:11:48;6.40;;;4.53;;
15402;SDS011;7799;53.478;10.170;2023-04-08T04:14:15;5.73;;;4.80;;
15402;SDS011;7799;53.478;10.170;2023-04-08T04:16:42;7.57;;;5.60;;
15402;SDS011;7799;53.478;10.170;2023-04-08T04:19:10;8.30;;;5.23;;
15402;SDS011;7799;53.478;10.170;2023-04-08T04:21:36;6.00;;;4.63;;
15402;SDS011;7799;53.478;10.170;2023-04-08T04:24:03;5.93;;;4.70;;
15402;SDS011;7799;53.478;10.170;2023-04-08T04:26:30;8.40;;;5.07;;
15402;SDS011;7799;53.478;10.170;2023-04-08T04:28:57;5.47;;;4.60;;
15402;SDS011;7799;53.478;10.170;2023-04-08T04:31:24;6.83;;;4.90;;
15402;SDS011;7799;53.478;10.170;2023-04-08T04:33:51;6.10;;;4.87;;
15402;SDS011;7799;53.478;10.170;2023-04-08T04:36:19;6.37;;;4.77;;
15402;SDS011;7799;53.478;10.170;2023-04-08T04:38:46;7.93;;;4.97;;
15402;SDS011;7799;53.478;10.170;2023-04-08T04:41:12;5.73;;;4.43;;
15402;SDS011;7799;53.478;10.170;2023-04-08T04:43:39;7.23;;;4.57;;
15402;SDS011;7799;53.478;10.170;2023-04-08T04:46:06;5.03;;;4.30;;
15402;SDS011;7799;53.478;10.170;2023-04-08T04:48:33;6.33;;;5.10;;
15402;SDS011;7799;53.478;10.170;2023-04-08T04:51:00;5.33;;;4.23;;
15402;SDS011;7799;53.478;10.170;2023-04-08T04:53:28;6.43;;;4.50;;
15402;SDS011;7799;53.478;10.170;2023-04-08T04:55:55;7.90;;;4.97;;
15402;SDS011;7799;53.478;10.170;2023-04-08T04:58:22;5.57;;;4.10;;
15402;SDS011;7799;53.478;10.170;2023-04-08T05:00:49;5.83;;;4.63;;
15402;SDS011;7799;53.478;10.170;2023-04-08T05:03:16;5.73;;;4.43;;
15402;SDS011;7799;53.478;10.170;2023-04-08T05:05:42;5.87;;;4.43;;
15402;SDS011;7799;53.478;10.170;2023-04-08T05:08:09;7.70;;;5.47;;
15402;SDS011;7799;53.478;10.170;2023-04-08T05:10:38;7.63;;;5.83;;
15402;SDS011;7799;53.478;10.170;2023-04-08T05:13:06;5.53;;;4.60;;
15402;SDS011;7799;53.478;10.170;2023-04-08T05:15:32;4.77;;;3.97;;
15402;SDS011;7799;53.478;10.170;2023-04-08T05:18:00;4.77;;;3.80;;
15402;SDS011;7799;53.478;10.170;2023-04-08T05:20:26;5.70;;;3.80;;
15402;SDS011;7799;53.478;10.170;2023-04-08T05:22:53;4.53;;;3.77;;
15402;SDS011;7799;53.478;10.170;2023-04-08T05:25:20;5.93;;;4.67;;
15402;SDS011;7799;53.478;10.170;2023-04-08T05:27:48;5.70;;;4.50;;
15402;SDS011;7799;53.478;10.170;2023-04-08T05:30:15;6.13;;;4.87;;
15402;SDS011;7799;53.478;10.170;2023-04-08T05:32:42;6.73;;;5.20;;
15402;SDS011;7799;53.478;10.170;2023-04-08T05:35:09;7.27;;;5.70;;
15402;SDS011;7799;53.478;10.170;2023-04-08T05:37:36;5.47;;;4.93;;
15402;SDS011;7799;53.478;10.170;2023-04-08T05:40:03;7.60;;;5.47;;
15402;SDS011;7799;53.478;10.170;2023-04-08T05:42:30;6.50;;;5.10;;
15402;SDS011;7799;53.478;10.170;2023-04-08T05:44:58;7.50;;;5.40;;
15402;SDS011;7799;53.478;10.170;2023-04-08T05:47:25;7.40;;;5.50;;
15402;SDS011;7799;53.478;10.170;2023-04-08T05:49:52;6.97;;;5.30;;
15402;SDS011;7799;53.478;10.170;2023-04-08T05:52:18;8.07;;;6.47;;
15402;SDS011;7799;53.478;10.170;2023-04-08T05:54:45;7.63;;;5.50;;
15402;SDS011;7799;53.478;10.170;2023-04-08T05:57:12;5.00;;;4.40;;
15402;SDS011;7799;53.478;10.170;2023-04-08T05:59:38;6.73;;;5.47;;
15402;SDS011;7799;53.478;10.170;2023-04-08T06:02:06;7.10;;;5.50;;
15402;SDS011;7799;53.478;10.170;2023-04-08T06:04:33;6.37;;;4.73;;
15402;SDS011;7799;53.478;10.170;2023-04-08T06:07:00;7.03;;;4.93;;
15402;SDS011;7799;53.478;10.170;2023-04-08T06:09:28;5.80;;;4.80;;
15402;SDS011;7799;53.478;10.170;2023-04-08T06:11:55;6.40;;;4.90;;
15402;SDS011;7799;53.478;10.170;2023-04-08T06:14:22;7.13;;;4.83;;
15402;SDS011;7799;53.478;10.170;2023-04-08T06:16:48;6.13;;;5.03;;
15402;SDS011;7799;53.478;10.170;2023-04-08T06:19:18;6.40;;;4.83;;
15402;SDS011;7799;53.478;10.170;2023-04-08T06:21:45;6.67;;;4.90;;
15402;SDS011;7799;53.478;10.170;2023-04-08T06:24:12;7.37;;;5.80;;
15402;SDS011;7799;53.478;10.170;2023-04-08T06:26:38;7.53;;;5.40;;
15402;SDS011;7799;53.478;10.170;2023-04-08T06:29:05;5.63;;;4.53;;
15402;SDS011;7799;53.478;10.170;2023-04-08T06:31:32;5.83;;;4.50;;
15402;SDS011;7799;53.478;10.170;2023-04-08T06:33:58;6.33;;;4.90;;
15402;SDS011;7799;53.478;10.170;2023-04-08T06:36:26;5.93;;;4.60;;
15402;SDS011;7799;53.478;10.170;2023-04-08T06:38:53;3.90;;;3.50;;
15402;SDS011;7799;53.478;10.170;2023-04-08T06:41:20;5.07;;;3.83;;
15402;SDS011;7799;53.478;10.170;2023-04-08T06:43:48;4.60;;;4.10;;
15402;SDS011;7799;53.478;10.170;2023-04-08T06:46:14;4.47;;;4.07;;
15402;SDS011;7799;53.478;10.170;2023-04-08T06:48:41;4.93;;;4.07;;
15402;SDS011;7799;53.478;10.170;2023-04-08T06:51:08;4.20;;;3.80;;
15402;SDS011;7799;53.478;10.170;2023-04-08T06:53:36;4.77;;;3.73;;
15402;SDS011;7799;53.478;10.170;2023-04-08T06:56:03;4.90;;;4.30;;
15402;SDS011;7799;53.478;10.170;2023-04-08T06:58:31;4.57;;;3.93;;
15402;SDS011;7799;53.478;10.170;2023-04-08T07:00:58;5.17;;;3.70;;
15402;SDS011;7799;53.478;10.170;2023-04-08T07:03:25;5.97;;;4.63;;
15402;SDS011;7799;53.478;10.170;2023-04-08T07:05:52;6.17;;;4.87;;
15402;SDS011;7799;53.478;10.170;2023-04-08T07:08:19;6.63;;;4.60;;
15402;SDS011;7799;53.478;10.170;2023-04-08T07:10:47;6.87;;;4.83;;
15402;SDS011;7799;53.478;10.170;2023-04-08T07:13:14;6.27;;;4.50;;
15402;SDS011;7799;53.478;10.170;2023-04-08T07:15:41;5.80;;;4.50;;
15402;SDS011;7799;53.478;10.170;2023-04-08T07:18:08;5.60;;;4.43;;
15402;SDS011;7799;53.478;10.170;2023-04-08T07:20:34;5.20;;;4.00;;
15402;SDS011;7799;53.478;10.170;2023-04-08T07:23:02;4.00;;;3.60;;
15402;SDS011;7799;53.478;10.170;2023-04-08T07:25:29;6.17;;;4.40;;
15402;SDS011;7799;53.478;10.170;2023-04-08T07:27:57;6.43;;;4.33;;
15402;SDS011;7799;53.478;10.170;2023-04-08T07:30:23;6.33;;;4.83;;
15402;SDS011;7799;53.478;10.170;2023-04-08T07:32:50;5.27;;;4.00;;
15402;SDS011;7799;53.478;10.170;2023-04-08T07:35:19;5.83;;;4.53;;
15402;SDS011;7799;53.478;10.170;2023-04-08T07:37:48;6.10;;;4.93;;
15402;SDS011;7799;53.478;10.170;2023-04-08T07:40:15;6.70;;;4.60;;
15402;SDS011;7799;53.478;10.170;2023-04-08T07:42:42;10.30;;;6.30;;
15402;SDS011;7799;53.478;10.170;2023-04-08T07:45:10;5.10;;;4.60;;
15402;SDS011;7799;53.478;10.170;2023-04-08T07:47:37;6.33;;;4.40;;
15402;SDS011;7799;53.478;10.170;2023-04-08T07:50:04;5.37;;;4.50;;
15402;SDS011;7799;53.478;10.170;2023-04-08T07:52:32;6.10;;;4.33;;
15402;SDS011;7799;53.478;10.170;2023-04-08T07:54:58;7.40;;;5.00;;
15402;SDS011;7799;53.478;10.170;2023-04-08T07:57:26;5.63;;;4.50;;
15402;SDS011;7799;53.478;10.170;2023-04-08T07:59:52;5.33;;;4.50;;
15402;SDS011;7799;53.478;10.170;2023-04-08T08:02:20;4.13;;;3.43;;
15402;SDS011;7799;53.478;10.170;2023-04-08T08:04:47;4.73;;;4.20;;
15402;SDS011;7799;53.478;10.170;2023-04-08T08:07:14;6.10;;;4.47;;
15402;SDS011;7799;53.478;10.170;2023-04-08T08:09:41;5.70;;;4.23;;
15402;SDS011;7799;53.478;10.170;2023-04-08T08:12:07;6.60;;;4.97;;
15402;SDS011;7799;53.478;10.170;2023-04-08T08:14:34;6.00;;;4.20;;
15402;SDS011;7799;53.478;10.170;2023-04-08T08:17:02;6.07;;;4.33;;
15402;SDS011;7799;53.478;10.170;2023-04-08T08:19:30;5.37;;;4.17;;
15402;SDS011;7799;53.478;10.170;2023-04-08T08:21:56;6.83;;;4.87;;
15402;SDS011;7799;53.478;10.170;2023-04-08T08:24:23;7.33;;;4.80;;
15402;SDS011;7799;53.478;10.170;2023-04-08T08:26:50;5.33;;;4.03;;
15402;SDS011;7799;53.478;10.170;2023-04-08T08:29:17;4.53;;;3.70;;
15402;SDS011;7799;53.478;10.170;2023-04-08T08:31:44;4.50;;;3.53;;
15402;SDS011;7799;53.478;10.170;2023-04-08T08:34:12;4.00;;;3.03;;
15402;SDS011;7799;53.478;10.170;2023-04-08T08:36:40;4.33;;;3.07;;
15402;SDS011;7799;53.478;10.170;2023-04-08T08:39:07;3.93;;;2.83;;
15402;SDS011;7799;53.478;10.170;2023-04-08T08:41:33;5.07;;;3.73;;
15402;SDS011;7799;53.478;10.170;2023-04-08T08:44:01;6.10;;;4.27;;
15402;SDS011;7799;53.478;10.170;2023-04-08T08:46:28;5.80;;;4.70;;
15402;SDS011;7799;53.478;10.170;2023-04-08T08:48:55;6.00;;;5.17;;
15402;SDS011;7799;53.478;10.170;2023-04-08T08:51:22;5.43;;;4.70;;
15402;SDS011;7799;53.478;10.170;2023-04-08T08:53:50;5.80;;;4.43;;
15402;SDS011;7799;53.478;10.170;2023-04-08T08:56:17;5.00;;;4.03;;
15402;SDS011;7799;53.478;10.170;2023-04-08T08:58:44;5.83;;;4.60;;
15402;SDS011;7799;53.478;10.170;2023-04-08T09:01:30;5.37;;;4.03;;
15402;SDS011;7799;53.478;10.170;2023-04-08T09:04:08;6.27;;;4.77;;
15402;SDS011;7799;53.478;10.170;2023-04-08T09:06:35;6.00;;;4.37;;
15402;SDS011;7799;53.478;10.170;2023-04-08T09:09:03;6.50;;;4.53;;
15402;SDS011;7799;53.478;10.170;2023-04-08T09:11:34;5.53;;;3.93;;
15402;SDS011;7799;53.478;10.170;2023-04-08T09:14:01;6.00;;;4.40;;
15402;SDS011;7799;53.478;10.170;2023-04-08T09:16:28;4.60;;;3.60;;
15402;SDS011;7799;53.478;10.170;2023-04-08T09:18:57;6.03;;;4.13;;
15402;SDS011;7799;53.478;10.170;2023-04-08T09:21:33;5.77;;;4.43;;
15402;SDS011;7799;53.478;10.170;2023-04-08T09:24:00;5.43;;;4.50;;
15402;SDS011;7799;53.478;10.170;2023-04-08T09:26:28;5.33;;;4.67;;
15402;SDS011;7799;53.478;10.170;2023-04-08T09:28:59;7.10;;;5.17;;
15402;SDS011;7799;53.478;10.170;2023-04-08T09:31:27;6.47;;;5.00;;
15402;SDS011;7799;53.478;10.170;2023-04-08T09:33:55;6.97;;;4.60;;
15402;SDS011;7799;53.478;10.170;2023-04-08T09:36:23;5.33;;;4.13;;
15402;SDS011;7799;53.478;10.170;2023-04-08T09:38:52;5.23;;;4.53;;
15402;SDS011;7799;53.478;10.170;2023-04-08T09:41:21;4.40;;;3.80;;
15402;SDS011;7799;53.478;10.170;2023-04-08T09:43:50;6.03;;;4.27;;
15402;SDS011;7799;53.478;10.170;2023-04-08T09:46:23;4.97;;;4.43;;
15402;SDS011;7799;53.478;10.170;2023-04-08T09:48:55;7.33;;;4.73;;
15402;SDS011;7799;53.478;10.170;2023-04-08T09:51:27;5.77;;;5.10;;
15402;SDS011;7799;53.478;10.170;2023-04-08T09:54:00;6.07;;;4.63;;
15402;SDS011;7799;53.478;10.170;2023-04-08T09:56:29;4.40;;;3.80;;
15402;SDS011;7799;53.478;10.170;2023-04-08T09:59:06;4.97;;;4.33;;
15402;SDS011;7799;53.478;10.170;2023-04-08T10:01:36;6.40;;;4.63;;
15402;SDS011;7799;53.478;10.170;2023-04-08T10:04:04;8.20;;;6.00;;
15402;SDS011;7799;53.478;10.170;2023-04-08T10:06:35;7.57;;;5.90;;
15402;SDS011;7799;53.478;10.170;2023-04-08T10:09:02;7.23;;;5.03;;
15402;SDS011;7799;53.478;10.170;2023-04-08T10:11:30;6.13;;;4.97;;
15402;SDS011;7799;53.478;10.170;2023-04-08T10:13:56;4.83;;;4.03;;
15402;SDS011;7799;53.478;10.170;2023-04-08T10:16:25;6.63;;;5.23;;
15402;SDS011;7799;53.478;10.170;2023-04-08T10:18:52;7.13;;;5.30;;
15402;SDS011;7799;53.478;10.170;2023-04-08T10:21:31;5.57;;;4.17;;
15402;SDS011;7799;53.478;10.170;2023-04-08T10:23:58;4.10;;;3.53;;
15402;SDS011;7799;53.478;10.170;2023-04-08T10:26:31;3.70;;;3.30;;
15402;SDS011;7799;53.478;10.170;2023-04-08T10:32:11;5.30;;;4.23;;
15402;SDS011;7799;53.478;10.170;2023-04-08T10:34:53;5.30;;;4.53;;
15402;SDS011;7799;53.478;10.170;2023-04-08T10:37:20;6.70;;;4.90;;
15402;SDS011;7799;53.478;10.170;2023-04-08T10:39:52;5.60;;;4.40;;
15402;SDS011;7799;53.478;10.170;2023-04-08T10:42:25;4.70;;;4.10;;
15402;SDS011;7799;53.478;10.170;2023-04-08T10:44:52;6.17;;;4.67;;
15402;SDS011;7799;53.478;10.170;2023-04-08T10:47:25;5.27;;;4.77;;
15402;SDS011;7799;53.478;10.170;2023-04-08T10:49:52;4.60;;;3.70;;
15402;SDS011;7799;53.478;10.170;2023-04-08T10:52:19;6.07;;;4.90;;
15402;SDS011;7799;53.478;10.170;2023-04-08T10:54:47;5.93;;;4.60;;
15402;SDS011;7799;53.478;10.170;2023-04-08T10:57:14;5.37;;;4.63;;
15402;SDS011;7799;53.478;10.170;2023-04-08T10:59:41;6.63;;;5.77;;
15402;SDS011;7799;53.478;10.170;2023-04-08T11:02:11;5.90;;;4.87;;
15402;SDS011;7799;53.478;10.170;2023-04-08T11:04:41;7.30;;;5.20;;
15402;SDS011;7799;53.478;10.170;2023-04-08T11:07:08;7.97;;;6.10;;
15402;SDS011;7799;53.478;10.170;2023-04-08T11:09:36;6.80;;;5.50;;
15402;SDS011;7799;53.478;10.170;2023-04-08T11:12:05;5.70;;;4.90;;
15402;SDS011;7799;53.478;10.170;2023-04-08T11:14:32;6.03;;;5.23;;
15402;SDS011;7799;53.478;10.170;2023-04-08T11:16:58;8.33;;;5.80;;
15402;SDS011;7799;53.478;10.170;2023-04-08T11:19:25;6.40;;;5.80;;
15402;SDS011;7799;53.478;10.170;2023-04-08T11:21:53;6.23;;;5.00;;
15402;SDS011;7799;53.478;10.170;2023-04-08T11:24:21;6.07;;;4.73;;
15402;SDS011;7799;53.478;10.170;2023-04-08T11:26:47;5.93;;;5.07;;
15402;SDS011;7799;53.478;10.170;2023-04-08T11:29:14;6.57;;;4.70;;
15402;SDS011;7799;53.478;10.170;2023-04-08T11:31:41;6.23;;;4.67;;
15402;SDS011;7799;53.478;10.170;2023-04-08T11:34:08;8.93;;;6.10;;
15402;SDS011;7799;53.478;10.170;2023-04-08T11:36:35;6.50;;;5.23;;
15402;SDS011;7799;53.478;10.170;2023-04-08T11:39:07;9.07;;;6.30;;
15402;SDS011;7799;53.478;10.170;2023-04-08T11:41:35;6.07;;;5.47;;
15402;SDS011;7799;53.478;10.170;2023-04-08T11:44:03;6.20;;;4.60;;
15402;SDS011;7799;53.478;10.170;2023-04-08T11:46:30;5.97;;;4.80;;
15402;SDS011;7799;53.478;10.170;2023-04-08T11:48:58;7.70;;;4.90;;
15402;SDS011;7799;53.478;10.170;2023-04-08T11:51:25;6.20;;;5.30;;
15402;SDS011;7799;53.478;10.170;2023-04-08T11:53:52;7.53;;;5.40;;
15402;SDS011;7799;53.478;10.170;2023-04-08T11:56:21;6.87;;;5.30;;
15402;SDS011;7799;53.478;10.170;2023-04-08T11:58:48;5.73;;;4.93;;
15402;SDS011;7799;53.478;10.170;2023-04-08T12:01:16;5.67;;;4.93;;
15402;SDS011;7799;53.478;10.170;2023-04-08T12:03:55;7.40;;;5.63;;
15402;SDS011;7799;53.478;10.170;2023-04-08T12:06:22;6.30;;;4.77;;
15402;SDS011;7799;53.478;10.170;2023-04-08T12:08:51;6.30;;;5.33;;
15402;SDS011;7799;53.478;10.170;2023-04-08T12:11:18;7.37;;;5.90;;
15402;SDS011;7799;53.478;10.170;2023-04-08T12:13:46;6.37;;;5.00;;
15402;SDS011;7799;53.478;10.170;2023-04-08T12:16:14;6.40;;;5.13;;
15402;SDS011;7799;53.478;10.170;2023-04-08T12:18:41;7.63;;;5.77;;
15402;SDS011;7799;53.478;10.170;2023-04-08T12:21:08;7.67;;;5.97;;
15402;SDS011;7799;53.478;10.170;2023-04-08T12:23:35;6.53;;;5.40;;
15402;SDS011;7799;53.478;10.170;2023-04-08T12:26:01;7.10;;;5.90;;
15402;SDS011;7799;53.478;10.170;2023-04-08T12:28:28;7.83;;;5.83;;
15402;SDS011;7799;53.478;10.170;2023-04-08T12:30:56;7.97;;;6.30;;
15402;SDS011;7799;53.478;10.170;2023-04-08T12:33:23;7.87;;;6.07;;
15402;SDS011;7799;53.478;10.170;2023-04-08T12:35:50;6.53;;;5.50;;
15402;SDS011;7799;53.478;10.170;2023-04-08T12:38:17;7.13;;;5.57;;
15402;SDS011;7799;53.478;10.170;2023-04-08T12:40:43;5.60;;;4.53;;
15402;SDS011;7799;53.478;10.170;2023-04-08T12:43:10;8.07;;;5.47;;
15402;SDS011;7799;53.478;10.170;2023-04-08T12:45:37;7.83;;;6.87;;
15402;SDS011;7799;53.478;10.170;2023-04-08T12:48:05;7.90;;;6.03;;
15402;SDS011;7799;53.478;10.170;2023-04-08T12:50:31;7.07;;;5.60;;
15402;SDS011;7799;53.478;10.170;2023-04-08T12:52:58;6.63;;;4.97;;
15402;SDS011;7799;53.478;10.170;2023-04-08T12:55:25;5.80;;;5.07;;
15402;SDS011;7799;53.478;10.170;2023-04-08T12:57:52;5.43;;;4.43;;
15402;SDS011;7799;53.478;10.170;2023-04-08T13:00:18;5.90;;;4.87;;
15402;SDS011;7799;53.478;10.170;2023-04-08T13:02:45;6.83;;;5.57;;
15402;SDS011;7799;53.478;10.170;2023-04-08T13:05:13;6.63;;;5.93;;
15402;SDS011;7799;53.478;10.170;2023-04-08T13:07:40;6.90;;;5.57;;
15402;SDS011;7799;53.478;10.170;2023-04-08T13:10:07;7.37;;;6.30;;
15402;SDS011;7799;53.478;10.170;2023-04-08T13:12:34;9.70;;;6.50;;
15402;SDS011;7799;53.478;10.170;2023-04-08T13:15:04;6.80;;;6.00;;
15402;SDS011;7799;53.478;10.170;2023-04-08T13:17:32;7.83;;;6.07;;
15402;SDS011;7799;53.478;10.170;2023-04-08T13:19:58;7.83;;;6.10;;
15402;SDS011;7799;53.478;10.170;2023-04-08T13:22:27;6.43;;;5.37;;
15402;SDS011;7799;53.478;10.170;2023-04-08T13:24:54;7.90;;;6.57;;
15402;SDS011;7799;53.478;10.170;2023-04-08T13:27:21;8.63;;;6.87;;
15402;SDS011;7799;53.478;10.170;2023-04-08T13:29:47;7.63;;;6.80;;
15402;SDS011;7799;53.478;10.170;2023-04-08T13:32:14;7.83;;;6.83;;
15402;SDS011;7799;53.478;10.170;2023-04-08T13:34:41;8.53;;;6.50;;
15402;SDS011;7799;53.478;10.170;2023-04-08T13:37:08;6.33;;;5.43;;
15402;SDS011;7799;53.478;10.170;2023-04-08T13:39:36;6.00;;;5.30;;
15402;SDS011;7799;53.478;10.170;2023-04-08T13:42:02;5.27;;;4.70;;
15402;SDS011;7799;53.478;10.170;2023-04-08T13:44:29;6.97;;;5.53;;
15402;SDS011;7799;53.478;10.170;2023-04-08T13:46:57;5.97;;;5.37;;
15402;SDS011;7799;53.478;10.170;2023-04-08T13:49:24;7.57;;;6.20;;
15402;SDS011;7799;53.478;10.170;2023-04-08T13:51:51;7.00;;;6.07;;
15402;SDS011;7799;53.478;10.170;2023-04-08T13:54:21;5.67;;;5.07;;
15402;SDS011;7799;53.478;10.170;2023-04-08T13:56:49;8.47;;;6.70;;
15402;SDS011;7799;53.478;10.170;2023-04-08T13:59:15;7.23;;;6.50;;
15402;SDS011;7799;53.478;10.170;2023-04-08T14:01:42;8.87;;;7.63;;
15402;SDS011;7799;53.478;10.170;2023-04-08T14:04:09;8.37;;;7.13;;
15402;SDS011;7799;53.478;10.170;2023-04-08T14:06:36;7.33;;;6.50;;
15402;SDS011;7799;53.478;10.170;2023-04-08T14:09:02;6.97;;;6.13;;
15402;SDS011;7799;53.478;10.170;2023-04-08T14:11:29;8.60;;;7.70;;
15402;SDS011;7799;53.478;10.170;2023-04-08T14:13:58;7.93;;;7.07;;
15402;SDS011;7799;53.478;10.170;2023-04-08T14:16:24;10.30;;;7.97;;
15402;SDS011;7799;53.478;10.170;2023-04-08T14:18:51;9.80;;;7.47;;
15402;SDS011;7799;53.478;10.170;2023-04-08T14:21:18;8.83;;;6.77;;
15402;SDS011;7799;53.478;10.170;2023-04-08T14:23:45;7.47;;;5.73;;
15402;SDS011;7799;53.478;10.170;2023-04-08T14:26:12;7.57;;;6.00;;
15402;SDS011;7799;53.478;10.170;2023-04-08T14:28:38;7.13;;;6.43;;
15402;SDS011;7799;53.478;10.170;2023-04-08T14:31:07;8.03;;;6.73;;
15402;SDS011;7799;53.478;10.170;2023-04-08T14:33:33;7.37;;;6.43;;
15402;SDS011;7799;53.478;10.170;2023-04-08T14:36:00;7.00;;;6.30;;
15402;SDS011;7799;53.478;10.170;2023-04-08T14:38:27;7.53;;;6.73;;
15402;SDS011;7799;53.478;10.170;2023-04-08T14:40:53;7.50;;;6.47;;
15402;SDS011;7799;53.478;10.170;2023-04-08T14:43:20;6.33;;;5.73;;
15402;SDS011;7799;53.478;10.170;2023-04-08T14:45:48;7.00;;;6.30;;
15402;SDS011;7799;53.478;10.170;2023-04-08T14:48:16;6.87;;;5.93;;
15402;SDS011;7799;53.478;10.170;2023-04-08T14:50:42;6.43;;;5.83;;
15402;SDS011;7799;53.478;10.170;2023-04-08T14:53:09;5.53;;;4.80;;